sensor_id;sensor_type;location;lat;lon;timestamp;pressure;altitude;pressure_sealevel;temperature;humidity
56040;BME280;43937;41.366;2.072;2024-03-29T00:00:41;99465.34;;;18.60;79.59
56040;BME280;43937;41.366;2.072;2024-03-29T00:03:09;99483.47;;;18.56;79.69
56040;BME280;43937;41.366;2.072;2024-03-29T00:05:38;99492.81;;;18.55;80.20
56040;BME280;43937;41.366;2.072;2024-03-29T00:08:04;99466.19;;;18.44;79.73
56040;BME280;43937;41.366;2.072;2024-03-29T00:10:30;99483.13;;;18.52;80.21
56040;BME280;43937;41.366;2.072;2024-03-29T00:12:58;99467.44;;;18.53;80.12
56040;BME280;43937;41.366;2.072;2024-03-29T00:15:24;99482.47;;;18.62;79.80
56040;BME280;43937;41.366;2.072;2024-03-29T00:17:50;99449.25;;;18.52;79.85
56040;BME280;43937;41.366;2.072;2024-03-29T00:20:16;99430.09;;;18.28;80.64
56040;BME280;43937;41.366;2.072;2024-03-29T00:22:42;99422.13;;;17.98;81.88
56040;BME280;43937;41.366;2.072;2024-03-29T00:25:07;99426.09;;;17.91;82.69
56040;BME280;43937;41.366;2.072;2024-03-29T00:27:33;99441.34;;;18.27;81.98
56040;BME280;43937;41.366;2.072;2024-03-29T00:29:58;99455.56;;;18.36;81.26
56040;BME280;43937;41.366;2.072;2024-03-29T00:32:25;99457.09;;;18.43;80.83
56040;BME280;43937;41.366;2.072;2024-03-29T00:34:52;99451.91;;;18.47;80.53
56040;BME280;43937;41.366;2.072;2024-03-29T00:37:18;99440.53;;;18.43;80.33
56040;BME280;43937;41.366;2.072;2024-03-29T00:39:44;99451.50;;;18.55;79.71
56040;BME280;43937;41.366;2.072;2024-03-29T00:42:09;99434.00;;;18.33;80.45
56040;BME280;43937;41.366;2.072;2024-03-29T00:44:38;99461.25;;;18.46;80.28
56040;BME280;43937;41.366;2.072;2024-03-29T00:47:04;99455.75;;;18.46;80.56
56040;BME280;43937;41.366;2.072;2024-03-29T00:49:30;99455.06;;;18.39;80.50
56040;BME280;43937;41.366;2.072;2024-03-29T00:51:56;99439.84;;;18.19;81.06
56040;BME280;43937;41.366;2.072;2024-03-29T00:54:21;99438.03;;;18.25;81.37
56040;BME280;43937;41.366;2.072;2024-03-29T00:56:49;99442.78;;;18.29;81.10
56040;BME280;43937;41.366;2.072;2024-03-29T00:59:15;99417.56;;;18.04;82.28
56040;BME280;43937;41.366;2.072;2024-03-29T01:01:41;99447.84;;;18.21;82.26
56040;BME280;43937;41.366;2.072;2024-03-29T01:04:07;99443.78;;;18.06;82.70
56040;BME280;43937;41.366;2.072;2024-03-29T01:06:33;99451.47;;;17.93;83.15
56040;BME280;43937;41.366;2.072;2024-03-29T01:09:00;99463.03;;;18.06;83.90
56040;BME280;43937;41.366;2.072;2024-03-29T01:11:25;99471.72;;;18.15;83.46
56040;BME280;43937;41.366;2.072;2024-03-29T01:13:51;99468.66;;;18.28;83.45
56040;BME280;43937;41.366;2.072;2024-03-29T01:16:16;99440.25;;;18.11;83.34
56040;BME280;43937;41.366;2.072;2024-03-29T01:18:42;99415.63;;;18.04;83.25
56040;BME280;43937;41.366;2.072;2024-03-29T01:21:09;99433.16;;;18.15;83.45
56040;BME280;43937;41.366;2.072;2024-03-29T01:23:34;99455.47;;;18.30;83.26
56040;BME280;43937;41.366;2.072;2024-03-29T01:26:00;99442.13;;;18.39;82.70
56040;BME280;43937;41.366;2.072;2024-03-29T01:28:26;99428.78;;;18.31;82.39
56040;BME280;43937;41.366;2.072;2024-03-29T01:30:54;99412.16;;;18.26;82.33
56040;BME280;43937;41.366;2.072;2024-03-29T01:33:21;99437.03;;;18.48;81.82
56040;BME280;43937;41.366;2.072;2024-03-29T01:35:47;99395.94;;;18.29;81.38
56040;BME280;43937;41.366;2.072;2024-03-29T01:38:14;99434.97;;;18.55;81.53
56040;BME280;43937;41.366;2.072;2024-03-29T01:40:40;99400.28;;;18.42;81.20
56040;BME280;43937;41.366;2.072;2024-03-29T01:43:05;99399.97;;;18.39;80.68
56040;BME280;43937;41.366;2.072;2024-03-29T01:45:34;99440.03;;;18.63;80.88
56040;BME280;43937;41.366;2.072;2024-03-29T01:48:00;99443.56;;;18.59;81.72
56040;BME280;43937;41.366;2.072;2024-03-29T01:50:25;99435.34;;;18.64;81.34
56040;BME280;43937;41.366;2.072;2024-03-29T01:52:52;99424.69;;;18.67;81.10
56040;BME280;43937;41.366;2.072;2024-03-29T01:55:18;99434.84;;;18.67;80.73
56040;BME280;43937;41.366;2.072;2024-03-29T01:57:44;99404.31;;;18.35;81.28
56040;BME280;43937;41.366;2.072;2024-03-29T02:00:10;99431.84;;;18.68;80.82
56040;BME280;43937;41.366;2.072;2024-03-29T02:02:36;99420.19;;;18.61;80.87
56040;BME280;43937;41.366;2.072;2024-03-29T02:05:02;99409.06;;;18.56;80.96
56040;BME280;43937;41.366;2.072;2024-03-29T02:07:29;99432.59;;;18.64;81.33
56040;BME280;43937;41.366;2.072;2024-03-29T02:09:55;99413.47;;;18.57;80.52
56040;BME280;43937;41.366;2.072;2024-03-29T02:12:21;99430.59;;;18.59;81.56
56040;BME280;43937;41.366;2.072;2024-03-29T02:14:46;99404.47;;;18.62;81.00
56040;BME280;43937;41.366;2.072;2024-03-29T02:17:12;99391.50;;;18.62;80.07
56040;BME280;43937;41.366;2.072;2024-03-29T02:19:37;99390.59;;;18.57;80.50
56040;BME280;43937;41.366;2.072;2024-03-29T02:22:03;99409.91;;;18.73;80.17
56040;BME280;43937;41.366;2.072;2024-03-29T02:24:31;99400.44;;;18.69;79.56
56040;BME280;43937;41.366;2.072;2024-03-29T02:26:57;99398.53;;;18.53;80.01
56040;BME280;43937;41.366;2.072;2024-03-29T02:29:23;99408.28;;;18.61;80.62
56040;BME280;43937;41.366;2.072;2024-03-29T02:31:49;99408.97;;;18.68;80.01
56040;BME280;43937;41.366;2.072;2024-03-29T02:34:15;99386.09;;;18.67;79.17
56040;BME280;43937;41.366;2.072;2024-03-29T02:36:40;99421.91;;;18.84;79.02
56040;BME280;43937;41.366;2.072;2024-03-29T02:39:09;99411.16;;;18.83;79.04
56040;BME280;43937;41.366;2.072;2024-03-29T02:41:35;99415.72;;;18.94;78.58
56040;BME280;43937;41.366;2.072;2024-03-29T02:44:00;99399.75;;;18.96;78.50
56040;BME280;43937;41.366;2.072;2024-03-29T02:46:26;99386.91;;;18.85;78.43
56040;BME280;43937;41.366;2.072;2024-03-29T02:48:51;99399.88;;;19.06;77.97
56040;BME280;43937;41.366;2.072;2024-03-29T02:51:17;99392.47;;;19.07;78.21
56040;BME280;43937;41.366;2.072;2024-03-29T02:53:42;99391.97;;;19.10;78.08
56040;BME280;43937;41.366;2.072;2024-03-29T02:56:08;99400.47;;;19.08;77.46
56040;BME280;43937;41.366;2.072;2024-03-29T02:58:37;99356.72;;;18.73;78.48
56040;BME280;43937;41.366;2.072;2024-03-29T03:01:07;99372.59;;;18.88;78.24
56040;BME280;43937;41.366;2.072;2024-03-29T03:03:32;99388.03;;;19.06;78.32
56040;BME280;43937;41.366;2.072;2024-03-29T03:05:58;99381.47;;;19.12;78.24
56040;BME280;43937;41.366;2.072;2024-03-29T03:08:23;99378.19;;;18.93;78.05
56040;BME280;43937;41.366;2.072;2024-03-29T03:11:07;99371.03;;;18.92;78.91
56040;BME280;43937;41.366;2.072;2024-03-29T03:13:32;99365.63;;;19.02;78.26
56040;BME280;43937;41.366;2.072;2024-03-29T03:15:58;99333.22;;;18.70;78.58
56040;BME280;43937;41.366;2.072;2024-03-29T03:18:24;99318.63;;;18.53;79.39
56040;BME280;43937;41.366;2.072;2024-03-29T03:20:52;99358.91;;;18.93;78.66
56040;BME280;43937;41.366;2.072;2024-03-29T03:23:18;99344.88;;;18.94;78.32
56040;BME280;43937;41.366;2.072;2024-03-29T03:25:44;99335.44;;;18.90;78.29
56040;BME280;43937;41.366;2.072;2024-03-29T03:28:09;99331.91;;;18.95;77.66
56040;BME280;43937;41.366;2.072;2024-03-29T03:30:39;99347.56;;;19.11;77.38
56040;BME280;43937;41.366;2.072;2024-03-29T03:33:05;99346.25;;;18.97;77.72
56040;BME280;43937;41.366;2.072;2024-03-29T03:35:31;99340.31;;;19.05;77.39
56040;BME280;43937;41.366;2.072;2024-03-29T03:37:56;99320.63;;;18.96;77.80
56040;BME280;43937;41.366;2.072;2024-03-29T03:40:22;99342.13;;;18.94;77.92
56040;BME280;43937;41.366;2.072;2024-03-29T03:42:47;99338.06;;;19.02;78.21
56040;BME280;43937;41.366;2.072;2024-03-29T03:45:13;99333.50;;;18.91;78.42
56040;BME280;43937;41.366;2.072;2024-03-29T03:47:39;99338.56;;;18.99;78.50
56040;BME280;43937;41.366;2.072;2024-03-29T03:50:05;99341.41;;;19.04;78.35
56040;BME280;43937;41.366;2.072;2024-03-29T03:52:30;99327.13;;;18.85;78.74
56040;BME280;43937;41.366;2.072;2024-03-29T03:54:56;99350.56;;;18.88;78.73
56040;BME280;43937;41.366;2.072;2024-03-29T03:57:21;99335.69;;;18.89;78.90
56040;BME280;43937;41.366;2.072;2024-03-29T03:59:49;99343.38;;;18.87;79.60
56040;BME280;43937;41.366;2.072;2024-03-29T04:02:15;99350.44;;;18.99;78.94
56040;BME280;43937;41.366;2.072;2024-03-29T04:04:40;99334.22;;;19.03;78.34
56040;BME280;43937;41.366;2.072;2024-03-29T04:07:05;99323.84;;;19.10;78.18
56040;BME280;43937;41.366;2.072;2024-03-29T04:09:31;99286.31;;;18.87;77.85
56040;BME280;43937;41.366;2.072;2024-03-29T04:11:57;99313.91;;;19.09;78.10
56040;BME280;43937;41.366;2.072;2024-03-29T04:14:22;99302.81;;;19.04;78.42
56040;BME280;43937;41.366;2.072;2024-03-29T04:16:48;99308.63;;;19.08;78.52
56040;BME280;43937;41.366;2.072;2024-03-29T04:19:13;99314.03;;;18.97;79.42
56040;BME280;43937;41.366;2.072;2024-03-29T04:21:39;99308.44;;;18.92;79.09
56040;BME280;43937;41.366;2.072;2024-03-29T04:24:04;99302.03;;;18.87;79.76
56040;BME280;43937;41.366;2.072;2024-03-29T04:26:32;99309.03;;;18.94;79.46
56040;BME280;43937;41.366;2.072;2024-03-29T04:28:58;99316.63;;;18.87;79.76
56040;BME280;43937;41.366;2.072;2024-03-29T04:31:24;99290.59;;;18.78;79.19
56040;BME280;43937;41.366;2.072;2024-03-29T04:33:49;99317.63;;;18.98;79.53
56040;BME280;43937;41.366;2.072;2024-03-29T04:36:14;99321.19;;;18.98;79.26
56040;BME280;43937;41.366;2.072;2024-03-29T04:38:40;99303.69;;;18.88;79.42
56040;BME280;43937;41.366;2.072;2024-03-29T04:41:06;99313.53;;;19.01;79.15
56040;BME280;43937;41.366;2.072;2024-03-29T04:43:31;99309.53;;;18.91;79.67
56040;BME280;43937;41.366;2.072;2024-03-29T04:46:09;99317.34;;;18.99;79.21
56040;BME280;43937;41.366;2.072;2024-03-29T04:48:35;99308.69;;;18.91;79.39
56040;BME280;43937;41.366;2.072;2024-03-29T04:51:01;99322.88;;;18.99;79.24
56040;BME280;43937;41.366;2.072;2024-03-29T04:53:26;99317.16;;;19.06;79.60
56040;BME280;43937;41.366;2.072;2024-03-29T04:55:56;99309.53;;;19.13;78.86
56040;BME280;43937;41.366;2.072;2024-03-29T04:58:25;99263.44;;;18.87;78.67
56040;BME280;43937;41.366;2.072;2024-03-29T05:00:51;99311.06;;;19.04;79.15
56040;BME280;43937;41.366;2.072;2024-03-29T05:03:18;99294.66;;;18.92;79.48
56040;BME280;43937;41.366;2.072;2024-03-29T05:05:45;99303.31;;;19.01;79.19
56040;BME280;43937;41.366;2.072;2024-03-29T05:08:11;99301.13;;;19.03;79.77
56040;BME280;43937;41.366;2.072;2024-03-29T05:10:36;99306.06;;;19.01;79.58
56040;BME280;43937;41.366;2.072;2024-03-29T05:13:02;99272.81;;;18.69;80.14
56040;BME280;43937;41.366;2.072;2024-03-29T05:15:28;99302.81;;;18.82;80.45
56040;BME280;43937;41.366;2.072;2024-03-29T05:17:54;99266.41;;;18.63;80.81
56040;BME280;43937;41.366;2.072;2024-03-29T05:20:19;99250.56;;;18.53;80.31
56040;BME280;43937;41.366;2.072;2024-03-29T05:22:45;99238.97;;;18.51;81.03
56040;BME280;43937;41.366;2.072;2024-03-29T05:25:10;99264.91;;;18.94;80.23
56040;BME280;43937;41.366;2.072;2024-03-29T05:27:36;99287.00;;;18.99;79.52
56040;BME280;43937;41.366;2.072;2024-03-29T05:30:02;99263.31;;;18.76;79.57
56040;BME280;43937;41.366;2.072;2024-03-29T05:32:29;99284.78;;;18.96;79.37
56040;BME280;43937;41.366;2.072;2024-03-29T05:34:54;99286.00;;;18.84;78.88
56040;BME280;43937;41.366;2.072;2024-03-29T05:37:20;99281.59;;;18.83;79.50
56040;BME280;43937;41.366;2.072;2024-03-29T05:39:47;99276.06;;;18.83;79.35
56040;BME280;43937;41.366;2.072;2024-03-29T05:42:13;99262.09;;;18.72;79.40
56040;BME280;43937;41.366;2.072;2024-03-29T05:44:38;99284.28;;;18.77;79.23
56040;BME280;43937;41.366;2.072;2024-03-29T05:47:03;99269.34;;;18.73;79.10
56040;BME280;43937;41.366;2.072;2024-03-29T05:49:32;99257.06;;;18.64;79.41
56040;BME280;43937;41.366;2.072;2024-03-29T05:51:58;99280.84;;;18.70;79.55
56040;BME280;43937;41.366;2.072;2024-03-29T05:54:24;99262.00;;;18.62;79.63
56040;BME280;43937;41.366;2.072;2024-03-29T05:56:50;99278.00;;;18.82;79.59
56040;BME280;43937;41.366;2.072;2024-03-29T05:59:15;99281.69;;;18.71;79.33
56040;BME280;43937;41.366;2.072;2024-03-29T06:01:41;99272.19;;;18.62;80.33
56040;BME280;43937;41.366;2.072;2024-03-29T06:04:07;99253.13;;;18.60;80.17
56040;BME280;43937;41.366;2.072;2024-03-29T06:06:40;99278.16;;;18.75;79.90
56040;BME280;43937;41.366;2.072;2024-03-29T06:09:06;99295.41;;;18.88;79.25
56040;BME280;43937;41.366;2.072;2024-03-29T06:11:31;99270.66;;;18.71;79.54
56040;BME280;43937;41.366;2.072;2024-03-29T06:13:57;99284.25;;;18.99;78.98
56040;BME280;43937;41.366;2.072;2024-03-29T06:16:27;99276.13;;;19.10;78.77
56040;BME280;43937;41.366;2.072;2024-03-29T06:19:10;99278.22;;;19.03;78.57
56040;BME280;43937;41.366;2.072;2024-03-29T06:21:36;99288.06;;;19.15;77.94
56040;BME280;43937;41.366;2.072;2024-03-29T06:24:11;99269.66;;;19.26;77.18
56040;BME280;43937;41.366;2.072;2024-03-29T06:26:41;99265.94;;;19.37;76.56
56040;BME280;43937;41.366;2.072;2024-03-29T06:29:07;99261.66;;;19.25;76.88
56040;BME280;43937;41.366;2.072;2024-03-29T06:31:35;99245.06;;;19.19;76.69
56040;BME280;43937;41.366;2.072;2024-03-29T06:34:01;99286.69;;;19.45;76.76
56040;BME280;43937;41.366;2.072;2024-03-29T06:36:26;99294.38;;;19.65;76.09
56040;BME280;43937;41.366;2.072;2024-03-29T06:38:54;99277.69;;;19.55;75.72
56040;BME280;43937;41.366;2.072;2024-03-29T06:41:20;99300.19;;;19.68;75.49
56040;BME280;43937;41.366;2.072;2024-03-29T06:43:45;99280.84;;;19.41;75.50
56040;BME280;43937;41.366;2.072;2024-03-29T06:46:12;99294.78;;;19.52;75.51
56040;BME280;43937;41.366;2.072;2024-03-29T06:48:37;99320.53;;;19.62;75.54
56040;BME280;43937;41.366;2.072;2024-03-29T06:51:03;99308.88;;;19.55;75.91
56040;BME280;43937;41.366;2.072;2024-03-29T06:53:29;99311.00;;;19.70;75.19
56040;BME280;43937;41.366;2.072;2024-03-29T06:55:55;99308.38;;;19.85;73.64
56040;BME280;43937;41.366;2.072;2024-03-29T06:58:22;99306.38;;;19.54;73.08
56040;BME280;43937;41.366;2.072;2024-03-29T07:00:48;99308.66;;;19.35;73.42
56040;BME280;43937;41.366;2.072;2024-03-29T07:03:15;99326.00;;;19.57;73.15
56040;BME280;43937;41.366;2.072;2024-03-29T07:05:41;99325.56;;;19.93;72.30
56040;BME280;43937;41.366;2.072;2024-03-29T07:08:06;99334.13;;;19.96;71.87
56040;BME280;43937;41.366;2.072;2024-03-29T07:10:32;99332.78;;;20.31;71.11
56040;BME280;43937;41.366;2.072;2024-03-29T07:12:57;99341.97;;;20.42;70.10
56040;BME280;43937;41.366;2.072;2024-03-29T07:15:23;99311.91;;;20.13;70.04
56040;BME280;43937;41.366;2.072;2024-03-29T07:17:48;99286.91;;;20.77;68.01
56040;BME280;43937;41.366;2.072;2024-03-29T07:20:16;99317.44;;;21.91;65.15
56040;BME280;43937;41.366;2.072;2024-03-29T07:22:42;99287.38;;;22.75;61.53
56040;BME280;43937;41.366;2.072;2024-03-29T07:25:07;99285.69;;;24.23;57.44
56040;BME280;43937;41.366;2.072;2024-03-29T07:27:33;99325.13;;;24.30;56.81
56040;BME280;43937;41.366;2.072;2024-03-29T07:30:02;99301.44;;;23.69;57.08
56040;BME280;43937;41.366;2.072;2024-03-29T07:32:29;99322.63;;;23.50;58.10
56040;BME280;43937;41.366;2.072;2024-03-29T07:34:55;99310.59;;;23.15;58.75
56040;BME280;43937;41.366;2.072;2024-03-29T07:37:23;99296.75;;;23.05;59.55
56040;BME280;43937;41.366;2.072;2024-03-29T07:39:49;99278.38;;;22.29;60.35
56040;BME280;43937;41.366;2.072;2024-03-29T07:42:14;99303.59;;;22.17;62.48
56040;BME280;43937;41.366;2.072;2024-03-29T07:44:40;99290.75;;;22.62;61.27
56040;BME280;43937;41.366;2.072;2024-03-29T07:47:05;99293.50;;;22.77;60.08
56040;BME280;43937;41.366;2.072;2024-03-29T07:49:31;99299.81;;;22.93;60.01
56040;BME280;43937;41.366;2.072;2024-03-29T07:51:56;99296.66;;;23.25;59.46
56040;BME280;43937;41.366;2.072;2024-03-29T07:54:22;99296.00;;;23.88;59.20
56040;BME280;43937;41.366;2.072;2024-03-29T07:56:47;99308.13;;;24.03;57.19
56040;BME280;43937;41.366;2.072;2024-03-29T07:59:13;99298.66;;;25.53;54.00
56040;BME280;43937;41.366;2.072;2024-03-29T08:01:38;99308.66;;;27.31;48.87
56040;BME280;43937;41.366;2.072;2024-03-29T08:04:06;99309.47;;;28.72;44.14
56040;BME280;43937;41.366;2.072;2024-03-29T08:06:32;99287.81;;;28.33;44.24
56040;BME280;43937;41.366;2.072;2024-03-29T08:08:58;99318.56;;;29.35;41.70
56040;BME280;43937;41.366;2.072;2024-03-29T08:11:23;99316.97;;;29.51;42.27
56040;BME280;43937;41.366;2.072;2024-03-29T08:13:49;99286.56;;;29.18;42.87
56040;BME280;43937;41.366;2.072;2024-03-29T08:16:14;99313.97;;;28.90;42.76
56040;BME280;43937;41.366;2.072;2024-03-29T08:18:42;99315.22;;;28.75;43.13
56040;BME280;43937;41.366;2.072;2024-03-29T08:21:07;99321.56;;;28.36;43.80
56040;BME280;43937;41.366;2.072;2024-03-29T08:23:40;99318.06;;;28.84;42.04
56040;BME280;43937;41.366;2.072;2024-03-29T08:26:05;99332.75;;;29.30;41.44
56040;BME280;43937;41.366;2.072;2024-03-29T08:28:31;99334.72;;;29.20;42.19
56040;BME280;43937;41.366;2.072;2024-03-29T08:30:58;99333.69;;;30.26;39.73
56040;BME280;43937;41.366;2.072;2024-03-29T08:33:23;99342.78;;;30.23;40.20
56040;BME280;43937;41.366;2.072;2024-03-29T08:35:49;99346.06;;;30.42;39.57
56040;BME280;43937;41.366;2.072;2024-03-29T08:38:15;99343.84;;;29.52;40.53
56040;BME280;43937;41.366;2.072;2024-03-29T08:40:41;99341.63;;;29.14;42.59
56040;BME280;43937;41.366;2.072;2024-03-29T08:43:09;99345.16;;;29.46;41.11
56040;BME280;43937;41.366;2.072;2024-03-29T08:45:35;99345.06;;;29.69;40.19
56040;BME280;43937;41.366;2.072;2024-03-29T08:48:08;99360.09;;;29.90;40.28
56040;BME280;43937;41.366;2.072;2024-03-29T08:50:34;99341.19;;;29.47;40.29
56040;BME280;43937;41.366;2.072;2024-03-29T08:53:03;99341.44;;;29.19;40.61
56040;BME280;43937;41.366;2.072;2024-03-29T08:55:33;99304.09;;;28.93;41.22
56040;BME280;43937;41.366;2.072;2024-03-29T08:58:00;99252.56;;;28.54;40.87
56040;BME280;43937;41.366;2.072;2024-03-29T09:00:26;99332.34;;;28.43;43.07
56040;BME280;43937;41.366;2.072;2024-03-29T09:02:52;99335.84;;;27.90;43.80
56040;BME280;43937;41.366;2.072;2024-03-29T09:05:18;99333.25;;;27.29;45.67
56040;BME280;43937;41.366;2.072;2024-03-29T09:07:43;99334.09;;;27.94;44.73
56040;BME280;43937;41.366;2.072;2024-03-29T09:10:08;99347.97;;;28.21;43.69
56040;BME280;43937;41.366;2.072;2024-03-29T09:12:34;99324.34;;;27.55;44.49
56040;BME280;43937;41.366;2.072;2024-03-29T09:15:00;99340.16;;;26.77;46.66
56040;BME280;43937;41.366;2.072;2024-03-29T09:17:26;99338.09;;;26.36;47.37
56040;BME280;43937;41.366;2.072;2024-03-29T09:19:52;99343.38;;;26.84;47.53
56040;BME280;43937;41.366;2.072;2024-03-29T09:22:17;99316.28;;;26.05;48.01
56040;BME280;43937;41.366;2.072;2024-03-29T09:24:43;99349.56;;;26.81;47.95
56040;BME280;43937;41.366;2.072;2024-03-29T09:27:09;99357.44;;;27.75;45.95
56040;BME280;43937;41.366;2.072;2024-03-29T09:29:34;99350.84;;;27.57;45.97
56040;BME280;43937;41.366;2.072;2024-03-29T09:32:00;99351.34;;;28.09;44.33
56040;BME280;43937;41.366;2.072;2024-03-29T09:34:27;99333.38;;;27.88;44.71
56040;BME280;43937;41.366;2.072;2024-03-29T09:36:53;99348.78;;;27.49;45.72
56040;BME280;43937;41.366;2.072;2024-03-29T09:39:18;99334.69;;;26.71;46.36
56040;BME280;43937;41.366;2.072;2024-03-29T09:41:45;99323.84;;;26.37;47.46
56040;BME280;43937;41.366;2.072;2024-03-29T09:44:11;99318.97;;;26.89;46.69
56040;BME280;43937;41.366;2.072;2024-03-29T09:46:37;99328.63;;;26.97;46.60
56040;BME280;43937;41.366;2.072;2024-03-29T09:49:06;99325.47;;;26.24;48.38
56040;BME280;43937;41.366;2.072;2024-03-29T09:51:32;99315.81;;;26.17;48.93
56040;BME280;43937;41.366;2.072;2024-03-29T09:53:59;99310.91;;;27.02;46.69
56040;BME280;43937;41.366;2.072;2024-03-29T09:56:26;99309.38;;;27.09;46.61
56040;BME280;43937;41.366;2.072;2024-03-29T09:58:52;99275.94;;;27.04;46.44
56040;BME280;43937;41.366;2.072;2024-03-29T10:01:18;99301.19;;;26.85;46.69
56040;BME280;43937;41.366;2.072;2024-03-29T10:03:47;99295.59;;;27.13;46.26
56040;BME280;43937;41.366;2.072;2024-03-29T10:06:13;99305.00;;;26.62;47.41
56040;BME280;43937;41.366;2.072;2024-03-29T10:08:39;99298.31;;;26.63;47.37
56040;BME280;43937;41.366;2.072;2024-03-29T10:11:05;99313.19;;;26.72;47.60
56040;BME280;43937;41.366;2.072;2024-03-29T10:13:31;99307.91;;;26.98;46.55
56040;BME280;43937;41.366;2.072;2024-03-29T10:15:56;99304.22;;;26.75;46.88
56040;BME280;43937;41.366;2.072;2024-03-29T10:18:23;99281.41;;;26.08;49.21
56040;BME280;43937;41.366;2.072;2024-03-29T10:21:07;99250.03;;;26.16;47.83
56040;BME280;43937;41.366;2.072;2024-03-29T10:23:34;99286.63;;;26.61;47.10
56040;BME280;43937;41.366;2.072;2024-03-29T10:26:03;99295.31;;;27.01;47.12
56040;BME280;43937;41.366;2.072;2024-03-29T10:28:35;99294.38;;;26.78;47.25
56040;BME280;43937;41.366;2.072;2024-03-29T10:31:03;99254.94;;;25.72;48.85
56040;BME280;43937;41.366;2.072;2024-03-29T10:33:29;99285.06;;;26.22;48.55
56040;BME280;43937;41.366;2.072;2024-03-29T10:36:02;99278.66;;;25.89;49.77
56040;BME280;43937;41.366;2.072;2024-03-29T10:38:31;99272.88;;;25.85;50.35
56040;BME280;43937;41.366;2.072;2024-03-29T10:40:57;99263.00;;;26.07;49.23
56040;BME280;43937;41.366;2.072;2024-03-29T10:43:23;99277.16;;;26.10;49.62
56040;BME280;43937;41.366;2.072;2024-03-29T10:45:50;99280.09;;;25.86;49.76
56040;BME280;43937;41.366;2.072;2024-03-29T10:48:25;99278.84;;;25.17;51.14
56040;BME280;43937;41.366;2.072;2024-03-29T10:50:56;99256.69;;;25.06;52.27
56040;BME280;43937;41.366;2.072;2024-03-29T10:53:23;99281.19;;;25.28;51.81
56040;BME280;43937;41.366;2.072;2024-03-29T10:55:53;99276.22;;;25.01;51.88
56040;BME280;43937;41.366;2.072;2024-03-29T10:58:20;99258.41;;;25.45;51.00
56040;BME280;43937;41.366;2.072;2024-03-29T11:00:53;99262.13;;;25.17;51.40
56040;BME280;43937;41.366;2.072;2024-03-29T11:03:44;99277.69;;;25.61;50.83
56040;BME280;43937;41.366;2.072;2024-03-29T11:06:12;99259.34;;;25.73;50.30
56040;BME280;43937;41.366;2.072;2024-03-29T11:08:38;99252.75;;;25.50;51.07
56040;BME280;43937;41.366;2.072;2024-03-29T11:11:11;99247.78;;;25.04;52.04
56040;BME280;43937;41.366;2.072;2024-03-29T11:16:09;99230.22;;;25.09;52.08
56040;BME280;43937;41.366;2.072;2024-03-29T11:18:38;99249.91;;;25.18;51.68
56040;BME280;43937;41.366;2.072;2024-03-29T11:21:05;99255.28;;;25.09;52.29
56040;BME280;43937;41.366;2.072;2024-03-29T11:23:33;99252.75;;;25.31;51.46
56040;BME280;43937;41.366;2.072;2024-03-29T11:25:59;99217.75;;;25.77;50.40
56040;BME280;43937;41.366;2.072;2024-03-29T11:28:33;99251.44;;;25.99;49.83
56040;BME280;43937;41.366;2.072;2024-03-29T11:31:03;99260.19;;;26.39;49.85
56040;BME280;43937;41.366;2.072;2024-03-29T11:38:40;99241.69;;;26.43;48.48
56040;BME280;43937;41.366;2.072;2024-03-29T11:41:16;99257.03;;;25.99;50.14
56040;BME280;43937;41.366;2.072;2024-03-29T11:43:42;99252.13;;;25.91;51.30
56040;BME280;43937;41.366;2.072;2024-03-29T11:46:12;99259.09;;;26.68;49.68
56040;BME280;43937;41.366;2.072;2024-03-29T11:48:38;99228.81;;;27.03;47.35
56040;BME280;43937;41.366;2.072;2024-03-29T11:51:06;99259.13;;;26.82;47.71
56040;BME280;43937;41.366;2.072;2024-03-29T11:53:32;99260.03;;;26.49;48.96
56040;BME280;43937;41.366;2.072;2024-03-29T11:55:58;99254.16;;;26.65;48.04
56040;BME280;43937;41.366;2.072;2024-03-29T11:58:26;99256.91;;;27.34;46.84
56040;BME280;43937;41.366;2.072;2024-03-29T12:00:52;99245.91;;;27.37;47.22
56040;BME280;43937;41.366;2.072;2024-03-29T12:03:20;99254.28;;;26.87;47.77
56040;BME280;43937;41.366;2.072;2024-03-29T12:05:48;99243.47;;;26.39;47.79
56040;BME280;43937;41.366;2.072;2024-03-29T12:08:14;99244.72;;;27.30;46.93
56040;BME280;43937;41.366;2.072;2024-03-29T12:10:40;99246.06;;;27.32;46.30
56040;BME280;43937;41.366;2.072;2024-03-29T12:13:07;99213.06;;;27.07;46.55
56040;BME280;43937;41.366;2.072;2024-03-29T12:15:33;99232.22;;;27.50;45.91
56040;BME280;43937;41.366;2.072;2024-03-29T12:18:03;99227.09;;;27.29;46.51
56040;BME280;43937;41.366;2.072;2024-03-29T12:20:30;99231.72;;;27.48;45.91
56040;BME280;43937;41.366;2.072;2024-03-29T12:22:59;99219.34;;;27.26;46.51
56040;BME280;43937;41.366;2.072;2024-03-29T12:25:25;99225.25;;;27.61;46.32
56040;BME280;43937;41.366;2.072;2024-03-29T12:27:52;99216.69;;;27.57;44.80
56040;BME280;43937;41.366;2.072;2024-03-29T12:30:18;99194.97;;;27.18;45.86
56040;BME280;43937;41.366;2.072;2024-03-29T12:32:44;99221.75;;;27.19;46.61
56040;BME280;43937;41.366;2.072;2024-03-29T12:35:16;99218.28;;;27.72;45.32
56040;BME280;43937;41.366;2.072;2024-03-29T12:37:48;99204.69;;;27.57;44.36
56040;BME280;43937;41.366;2.072;2024-03-29T12:40:18;99210.50;;;27.47;44.31
56040;BME280;43937;41.366;2.072;2024-03-29T12:42:50;99211.75;;;27.40;44.90
56040;BME280;43937;41.366;2.072;2024-03-29T12:45:19;99204.75;;;27.29;44.41
56040;BME280;43937;41.366;2.072;2024-03-29T12:47:46;99199.59;;;27.23;45.94
56040;BME280;43937;41.366;2.072;2024-03-29T12:50:14;99186.59;;;27.18;45.58
56040;BME280;43937;41.366;2.072;2024-03-29T12:52:44;99194.50;;;26.75;46.49
56040;BME280;43937;41.366;2.072;2024-03-29T12:55:10;99191.38;;;26.90;46.44
56040;BME280;43937;41.366;2.072;2024-03-29T12:57:37;99190.81;;;26.52;47.53
56040;BME280;43937;41.366;2.072;2024-03-29T13:00:04;99172.69;;;26.77;46.75
56040;BME280;43937;41.366;2.072;2024-03-29T13:02:37;99182.25;;;26.98;45.61
56040;BME280;43937;41.366;2.072;2024-03-29T13:05:04;99169.03;;;26.90;45.62